Venez Explorer Les Airs Avec Nous!

Que ce soit pour un vol de découverte, pour apprendre l’arts du pilotage ou pour voyager, venez nous rejoindre.

Information en heures locale pour LFDL
22 October 2019

Metar
LFBI 221700Z AUTO 03011KT CAVOK 13/10 Q1017 TEMPO BKN009

Lever du soleil aéronautique : 07:58

Lever du soleil : 08:28

Coucher du soleil : 18:59

Coucher du soleil aéronautique : 19:29

Actualité

Bienvenue à tous, l' Aéroclub Loudunais vous accueille sur son nouveau site internet.

Newsletter Sign Up

Praesent libero sed cursus anted dapibus diam
Fermer le menu